sensor_id;sensor_type;location;lat;lon;timestamp;P1;durP1;ratioP1;P2;durP2;ratioP2
52368;SDS011;38298;50.346;3.526;2023-05-31T00:00:31;5.40;;;4.65;;
52368;SDS011;38298;50.346;3.526;2023-05-31T00:02:57;7.88;;;4.82;;
52368;SDS011;38298;50.346;3.526;2023-05-31T00:05:23;6.90;;;4.97;;
52368;SDS011;38298;50.346;3.526;2023-05-31T00:07:49;7.00;;;4.72;;
52368;SDS011;38298;50.346;3.526;2023-05-31T00:10:15;6.55;;;4.50;;
52368;SDS011;38298;50.346;3.526;2023-05-31T00:12:41;7.35;;;4.57;;
52368;SDS011;38298;50.346;3.526;2023-05-31T00:15:07;5.97;;;4.93;;
52368;SDS011;38298;50.346;3.526;2023-05-31T00:17:33;7.68;;;4.57;;
52368;SDS011;38298;50.346;3.526;2023-05-31T00:19:59;7.90;;;5.03;;
52368;SDS011;38298;50.346;3.526;2023-05-31T00:22:25;7.22;;;4.68;;
52368;SDS011;38298;50.346;3.526;2023-05-31T00:24:51;6.13;;;4.43;;
52368;SDS011;38298;50.346;3.526;2023-05-31T00:27:17;5.13;;;4.40;;
52368;SDS011;38298;50.346;3.526;2023-05-31T00:29:43;7.97;;;5.25;;
52368;SDS011;38298;50.346;3.526;2023-05-31T00:32:09;8.18;;;4.80;;
52368;SDS011;38298;50.346;3.526;2023-05-31T00:34:35;10.02;;;4.80;;
52368;SDS011;38298;50.346;3.526;2023-05-31T00:37:01;7.47;;;5.03;;
52368;SDS011;38298;50.346;3.526;2023-05-31T00:39:27;8.35;;;4.80;;
52368;SDS011;38298;50.346;3.526;2023-05-31T00:41:53;9.57;;;5.20;;
52368;SDS011;38298;50.346;3.526;2023-05-31T00:44:20;7.45;;;4.57;;
52368;SDS011;38298;50.346;3.526;2023-05-31T00:46:46;5.43;;;4.35;;
52368;SDS011;38298;50.346;3.526;2023-05-31T00:49:12;5.68;;;4.82;;
52368;SDS011;38298;50.346;3.526;2023-05-31T00:51:38;6.88;;;4.82;;
52368;SDS011;38298;50.346;3.526;2023-05-31T00:54:04;8.70;;;5.13;;
52368;SDS011;38298;50.346;3.526;2023-05-31T00:56:31;5.30;;;4.45;;
52368;SDS011;38298;50.346;3.526;2023-05-31T00:58:58;10.95;;;4.50;;
52368;SDS011;38298;50.346;3.526;2023-05-31T01:01:25;7.22;;;4.57;;
52368;SDS011;38298;50.346;3.526;2023-05-31T01:03:51;7.82;;;4.72;;
52368;SDS011;38298;50.346;3.526;2023-05-31T01:06:17;9.00;;;5.07;;
52368;SDS011;38298;50.346;3.526;2023-05-31T01:08:43;7.22;;;4.97;;
52368;SDS011;38298;50.346;3.526;2023-05-31T01:11:12;6.82;;;5.10;;
52368;SDS011;38298;50.346;3.526;2023-05-31T01:14:00;6.22;;;5.07;;
52368;SDS011;38298;50.346;3.526;2023-05-31T01:16:38;7.72;;;5.00;;
52368;SDS011;38298;50.346;3.526;2023-05-31T01:19:07;6.78;;;4.88;;
52368;SDS011;38298;50.346;3.526;2023-05-31T01:21:48;6.75;;;4.43;;
52368;SDS011;38298;50.346;3.526;2023-05-31T01:26:52;8.90;;;5.00;;
52368;SDS011;38298;50.346;3.526;2023-05-31T01:29:24;5.63;;;4.82;;
52368;SDS011;38298;50.346;3.526;2023-05-31T01:31:50;8.25;;;6.00;;
52368;SDS011;38298;50.346;3.526;2023-05-31T01:34:17;8.10;;;5.43;;
52368;SDS011;38298;50.346;3.526;2023-05-31T01:36:43;9.80;;;5.30;;
52368;SDS011;38298;50.346;3.526;2023-05-31T01:39:09;8.73;;;5.10;;
52368;SDS011;38298;50.346;3.526;2023-05-31T01:41:37;5.93;;;5.10;;
52368;SDS011;38298;50.346;3.526;2023-05-31T01:44:04;11.70;;;5.53;;
52368;SDS011;38298;50.346;3.526;2023-05-31T01:46:31;7.88;;;5.10;;
52368;SDS011;38298;50.346;3.526;2023-05-31T01:48:57;10.68;;;4.60;;
52368;SDS011;38298;50.346;3.526;2023-05-31T01:51:23;8.73;;;4.93;;
52368;SDS011;38298;50.346;3.526;2023-05-31T01:53:50;6.97;;;5.07;;
52368;SDS011;38298;50.346;3.526;2023-05-31T01:56:16;6.18;;;5.03;;
52368;SDS011;38298;50.346;3.526;2023-05-31T01:58:43;8.90;;;4.97;;
52368;SDS011;38298;50.346;3.526;2023-05-31T02:01:12;8.23;;;5.45;;
52368;SDS011;38298;50.346;3.526;2023-05-31T02:03:39;10.15;;;5.55;;
52368;SDS011;38298;50.346;3.526;2023-05-31T02:06:05;5.88;;;5.28;;
52368;SDS011;38298;50.346;3.526;2023-05-31T02:08:31;8.68;;;5.38;;
52368;SDS011;38298;50.346;3.526;2023-05-31T02:10:57;11.90;;;5.90;;
52368;SDS011;38298;50.346;3.526;2023-05-31T02:13:24;9.73;;;5.65;;
52368;SDS011;38298;50.346;3.526;2023-05-31T02:15:54;8.80;;;5.35;;
52368;SDS011;38298;50.346;3.526;2023-05-31T02:18:20;7.43;;;5.80;;
52368;SDS011;38298;50.346;3.526;2023-05-31T02:20:47;10.80;;;5.80;;
52368;SDS011;38298;50.346;3.526;2023-05-31T02:23:13;7.85;;;5.35;;
52368;SDS011;38298;50.346;3.526;2023-05-31T02:25:39;8.10;;;5.80;;
52368;SDS011;38298;50.346;3.526;2023-05-31T02:28:05;7.97;;;5.60;;
52368;SDS011;38298;50.346;3.526;2023-05-31T02:30:32;7.28;;;5.50;;
52368;SDS011;38298;50.346;3.526;2023-05-31T02:32:58;8.93;;;5.30;;
52368;SDS011;38298;50.346;3.526;2023-05-31T02:35:27;7.88;;;5.72;;
52368;SDS011;38298;50.346;3.526;2023-05-31T02:37:53;8.25;;;5.90;;
52368;SDS011;38298;50.346;3.526;2023-05-31T02:40:19;8.05;;;5.63;;
52368;SDS011;38298;50.346;3.526;2023-05-31T02:42:45;7.60;;;5.70;;
52368;SDS011;38298;50.346;3.526;2023-05-31T02:45:11;9.60;;;5.68;;
52368;SDS011;38298;50.346;3.526;2023-05-31T02:47:37;9.15;;;5.47;;
52368;SDS011;38298;50.346;3.526;2023-05-31T02:50:07;11.10;;;5.85;;
52368;SDS011;38298;50.346;3.526;2023-05-31T02:52:34;7.70;;;5.38;;
52368;SDS011;38298;50.346;3.526;2023-05-31T02:55:00;7.30;;;5.68;;
52368;SDS011;38298;50.346;3.526;2023-05-31T02:57:26;7.90;;;5.43;;
52368;SDS011;38298;50.346;3.526;2023-05-31T02:59:54;6.55;;;5.40;;
52368;SDS011;38298;50.346;3.526;2023-05-31T03:02:21;8.13;;;5.47;;
52368;SDS011;38298;50.346;3.526;2023-05-31T03:04:47;7.95;;;5.43;;
52368;SDS011;38298;50.346;3.526;2023-05-31T03:07:13;9.73;;;5.97;;
52368;SDS011;38298;50.346;3.526;2023-05-31T03:09:39;7.88;;;5.75;;
52368;SDS011;38298;50.346;3.526;2023-05-31T03:12:05;9.50;;;6.35;;
52368;SDS011;38298;50.346;3.526;2023-05-31T03:14:31;9.55;;;6.15;;
52368;SDS011;38298;50.346;3.526;2023-05-31T03:16:57;9.13;;;5.90;;
52368;SDS011;38298;50.346;3.526;2023-05-31T03:19:24;8.38;;;5.55;;
52368;SDS011;38298;50.346;3.526;2023-05-31T03:21:50;7.40;;;5.50;;
52368;SDS011;38298;50.346;3.526;2023-05-31T03:24:16;6.63;;;5.40;;
52368;SDS011;38298;50.346;3.526;2023-05-31T03:26:42;9.32;;;6.28;;
52368;SDS011;38298;50.346;3.526;2023-05-31T03:29:07;9.20;;;6.22;;
52368;SDS011;38298;50.346;3.526;2023-05-31T03:31:33;8.93;;;5.70;;
52368;SDS011;38298;50.346;3.526;2023-05-31T03:33:59;10.50;;;6.90;;
52368;SDS011;38298;50.346;3.526;2023-05-31T03:36:25;10.10;;;6.20;;
52368;SDS011;38298;50.346;3.526;2023-05-31T03:38:51;8.30;;;5.75;;
52368;SDS011;38298;50.346;3.526;2023-05-31T03:41:17;9.63;;;5.78;;
52368;SDS011;38298;50.346;3.526;2023-05-31T03:43:43;10.75;;;6.53;;
52368;SDS011;38298;50.346;3.526;2023-05-31T03:46:10;8.40;;;6.80;;
52368;SDS011;38298;50.346;3.526;2023-05-31T03:48:36;13.38;;;6.72;;
52368;SDS011;38298;50.346;3.526;2023-05-31T03:51:02;10.13;;;6.55;;
52368;SDS011;38298;50.346;3.526;2023-05-31T03:53:28;10.02;;;6.05;;
52368;SDS011;38298;50.346;3.526;2023-05-31T03:55:53;8.95;;;6.65;;
52368;SDS011;38298;50.346;3.526;2023-05-31T03:58:19;10.05;;;6.40;;
52368;SDS011;38298;50.346;3.526;2023-05-31T04:00:46;9.38;;;6.53;;
52368;SDS011;38298;50.346;3.526;2023-05-31T04:03:12;14.32;;;7.05;;
52368;SDS011;38298;50.346;3.526;2023-05-31T04:05:39;8.90;;;6.68;;
52368;SDS011;38298;50.346;3.526;2023-05-31T04:08:05;10.23;;;6.63;;
52368;SDS011;38298;50.346;3.526;2023-05-31T04:10:31;11.50;;;6.45;;
52368;SDS011;38298;50.346;3.526;2023-05-31T04:12:57;11.10;;;6.63;;
52368;SDS011;38298;50.346;3.526;2023-05-31T04:15:23;11.02;;;6.25;;
52368;SDS011;38298;50.346;3.526;2023-05-31T04:17:49;8.65;;;6.57;;
52368;SDS011;38298;50.346;3.526;2023-05-31T04:20:15;9.82;;;6.68;;
52368;SDS011;38298;50.346;3.526;2023-05-31T04:22:41;11.38;;;6.57;;
52368;SDS011;38298;50.346;3.526;2023-05-31T04:25:07;9.45;;;6.38;;
52368;SDS011;38298;50.346;3.526;2023-05-31T04:27:38;10.75;;;6.22;;
52368;SDS011;38298;50.346;3.526;2023-05-31T04:30:06;10.48;;;6.72;;
52368;SDS011;38298;50.346;3.526;2023-05-31T04:32:33;9.27;;;6.45;;
52368;SDS011;38298;50.346;3.526;2023-05-31T04:34:59;12.93;;;6.68;;
52368;SDS011;38298;50.346;3.526;2023-05-31T04:37:28;9.70;;;6.35;;
52368;SDS011;38298;50.346;3.526;2023-05-31T04:39:57;9.05;;;6.63;;
52368;SDS011;38298;50.346;3.526;2023-05-31T04:42:24;8.85;;;6.75;;
52368;SDS011;38298;50.346;3.526;2023-05-31T04:44:51;11.15;;;6.85;;
52368;SDS011;38298;50.346;3.526;2023-05-31T04:47:22;12.27;;;6.63;;
52368;SDS011;38298;50.346;3.526;2023-05-31T04:49:49;11.48;;;6.93;;
52368;SDS011;38298;50.346;3.526;2023-05-31T04:52:15;10.85;;;6.80;;
52368;SDS011;38298;50.346;3.526;2023-05-31T04:54:42;10.02;;;7.25;;
52368;SDS011;38298;50.346;3.526;2023-05-31T04:57:08;12.57;;;6.88;;
52368;SDS011;38298;50.346;3.526;2023-05-31T04:59:34;10.55;;;6.65;;
52368;SDS011;38298;50.346;3.526;2023-05-31T05:02:01;15.05;;;7.25;;
52368;SDS011;38298;50.346;3.526;2023-05-31T05:04:27;9.05;;;6.72;;
52368;SDS011;38298;50.346;3.526;2023-05-31T05:06:53;12.48;;;7.20;;
52368;SDS011;38298;50.346;3.526;2023-05-31T05:09:20;15.07;;;6.68;;
52368;SDS011;38298;50.346;3.526;2023-05-31T05:11:46;12.93;;;7.28;;
52368;SDS011;38298;50.346;3.526;2023-05-31T05:14:12;9.68;;;6.75;;
52368;SDS011;38298;50.346;3.526;2023-05-31T05:16:38;13.30;;;7.75;;
52368;SDS011;38298;50.346;3.526;2023-05-31T05:19:04;10.75;;;7.03;;
52368;SDS011;38298;50.346;3.526;2023-05-31T05:21:30;10.90;;;7.57;;
52368;SDS011;38298;50.346;3.526;2023-05-31T05:23:56;11.23;;;7.18;;
52368;SDS011;38298;50.346;3.526;2023-05-31T05:26:22;12.35;;;7.32;;
52368;SDS011;38298;50.346;3.526;2023-05-31T05:28:48;10.05;;;6.90;;
52368;SDS011;38298;50.346;3.526;2023-05-31T05:31:14;10.23;;;7.30;;
52368;SDS011;38298;50.346;3.526;2023-05-31T05:33:40;11.88;;;7.57;;
52368;SDS011;38298;50.346;3.526;2023-05-31T05:36:06;14.35;;;7.90;;
52368;SDS011;38298;50.346;3.526;2023-05-31T05:38:32;11.43;;;7.05;;
52368;SDS011;38298;50.346;3.526;2023-05-31T05:40:58;12.07;;;7.30;;
52368;SDS011;38298;50.346;3.526;2023-05-31T05:43:24;14.25;;;7.85;;
52368;SDS011;38298;50.346;3.526;2023-05-31T05:45:50;17.33;;;7.88;;
52368;SDS011;38298;50.346;3.526;2023-05-31T05:48:16;9.73;;;7.53;;
52368;SDS011;38298;50.346;3.526;2023-05-31T05:50:42;15.02;;;7.63;;
52368;SDS011;38298;50.346;3.526;2023-05-31T05:53:08;15.20;;;7.68;;
52368;SDS011;38298;50.346;3.526;2023-05-31T05:55:34;12.63;;;7.70;;
52368;SDS011;38298;50.346;3.526;2023-05-31T05:58:00;14.63;;;7.97;;
52368;SDS011;38298;50.346;3.526;2023-05-31T06:00:26;11.70;;;8.02;;
52368;SDS011;38298;50.346;3.526;2023-05-31T06:02:53;17.27;;;7.80;;
52368;SDS011;38298;50.346;3.526;2023-05-31T06:05:19;13.40;;;7.90;;
52368;SDS011;38298;50.346;3.526;2023-05-31T06:07:51;15.95;;;8.50;;
52368;SDS011;38298;50.346;3.526;2023-05-31T06:10:17;12.63;;;8.48;;
52368;SDS011;38298;50.346;3.526;2023-05-31T06:12:43;13.07;;;8.00;;
52368;SDS011;38298;50.346;3.526;2023-05-31T06:15:09;19.77;;;9.02;;
52368;SDS011;38298;50.346;3.526;2023-05-31T06:17:35;13.38;;;9.00;;
52368;SDS011;38298;50.346;3.526;2023-05-31T06:20:02;14.18;;;7.75;;
52368;SDS011;38298;50.346;3.526;2023-05-31T06:22:30;14.85;;;8.63;;
52368;SDS011;38298;50.346;3.526;2023-05-31T06:24:57;15.52;;;8.38;;
52368;SDS011;38298;50.346;3.526;2023-05-31T06:27:23;14.95;;;8.40;;
52368;SDS011;38298;50.346;3.526;2023-05-31T06:29:50;16.38;;;8.90;;
52368;SDS011;38298;50.346;3.526;2023-05-31T06:32:22;15.18;;;7.97;;
52368;SDS011;38298;50.346;3.526;2023-05-31T06:34:48;21.52;;;8.98;;
52368;SDS011;38298;50.346;3.526;2023-05-31T06:37:15;16.98;;;9.02;;
52368;SDS011;38298;50.346;3.526;2023-05-31T06:39:41;18.30;;;8.48;;
52368;SDS011;38298;50.346;3.526;2023-05-31T06:42:07;16.02;;;8.77;;
52368;SDS011;38298;50.346;3.526;2023-05-31T06:44:36;16.35;;;8.38;;
52368;SDS011;38298;50.346;3.526;2023-05-31T06:47:02;14.43;;;9.60;;
52368;SDS011;38298;50.346;3.526;2023-05-31T06:49:29;14.38;;;9.07;;
52368;SDS011;38298;50.346;3.526;2023-05-31T06:51:55;17.08;;;8.52;;
52368;SDS011;38298;50.346;3.526;2023-05-31T06:54:22;12.00;;;7.72;;
52368;SDS011;38298;50.346;3.526;2023-05-31T06:56:48;13.35;;;8.98;;
52368;SDS011;38298;50.346;3.526;2023-05-31T06:59:14;24.17;;;9.40;;
52368;SDS011;38298;50.346;3.526;2023-05-31T07:01:40;16.48;;;8.55;;
52368;SDS011;38298;50.346;3.526;2023-05-31T07:04:06;18.55;;;8.60;;
52368;SDS011;38298;50.346;3.526;2023-05-31T07:06:33;15.15;;;8.65;;
52368;SDS011;38298;50.346;3.526;2023-05-31T07:09:01;15.45;;;8.73;;
52368;SDS011;38298;50.346;3.526;2023-05-31T07:11:28;15.75;;;8.80;;
52368;SDS011;38298;50.346;3.526;2023-05-31T07:13:54;16.50;;;9.18;;
52368;SDS011;38298;50.346;3.526;2023-05-31T07:18:50;16.20;;;8.48;;
52368;SDS011;38298;50.346;3.526;2023-05-31T07:21:16;16.25;;;8.60;;
52368;SDS011;38298;50.346;3.526;2023-05-31T07:23:42;13.02;;;8.13;;
52368;SDS011;38298;50.346;3.526;2023-05-31T07:26:08;14.27;;;8.02;;
52368;SDS011;38298;50.346;3.526;2023-05-31T07:28:34;19.13;;;8.73;;
52368;SDS011;38298;50.346;3.526;2023-05-31T07:31:00;16.98;;;7.68;;
52368;SDS011;38298;50.346;3.526;2023-05-31T07:33:27;15.90;;;8.40;;
52368;SDS011;38298;50.346;3.526;2023-05-31T07:35:53;17.33;;;7.88;;
52368;SDS011;38298;50.346;3.526;2023-05-31T07:38:19;14.65;;;7.80;;
52368;SDS011;38298;50.346;3.526;2023-05-31T07:40:45;14.98;;;7.38;;
52368;SDS011;38298;50.346;3.526;2023-05-31T07:43:11;14.45;;;7.97;;
52368;SDS011;38298;50.346;3.526;2023-05-31T07:45:38;12.60;;;7.32;;
52368;SDS011;38298;50.346;3.526;2023-05-31T07:48:04;14.93;;;7.60;;
52368;SDS011;38298;50.346;3.526;2023-05-31T07:50:30;21.67;;;8.25;;
52368;SDS011;38298;50.346;3.526;2023-05-31T07:52:56;12.85;;;7.00;;
52368;SDS011;38298;50.346;3.526;2023-05-31T07:55:22;14.70;;;7.93;;
52368;SDS011;38298;50.346;3.526;2023-05-31T07:57:48;12.63;;;6.97;;
52368;SDS011;38298;50.346;3.526;2023-05-31T08:00:15;14.15;;;7.70;;
52368;SDS011;38298;50.346;3.526;2023-05-31T08:02:41;14.95;;;7.18;;
52368;SDS011;38298;50.346;3.526;2023-05-31T08:05:07;14.07;;;6.95;;
52368;SDS011;38298;50.346;3.526;2023-05-31T08:07:33;11.70;;;6.43;;
52368;SDS011;38298;50.346;3.526;2023-05-31T08:09:59;14.00;;;7.28;;
52368;SDS011;38298;50.346;3.526;2023-05-31T08:12:25;12.35;;;6.50;;
52368;SDS011;38298;50.346;3.526;2023-05-31T08:14:51;13.23;;;6.38;;
52368;SDS011;38298;50.346;3.526;2023-05-31T08:17:17;13.88;;;6.88;;
52368;SDS011;38298;50.346;3.526;2023-05-31T08:19:43;10.40;;;6.35;;
52368;SDS011;38298;50.346;3.526;2023-05-31T08:22:09;11.88;;;6.20;;
52368;SDS011;38298;50.346;3.526;2023-05-31T08:24:35;9.35;;;5.40;;
52368;SDS011;38298;50.346;3.526;2023-05-31T08:27:01;16.60;;;6.22;;
52368;SDS011;38298;50.346;3.526;2023-05-31T08:29:27;11.65;;;5.25;;
52368;SDS011;38298;50.346;3.526;2023-05-31T08:31:53;14.15;;;5.88;;
52368;SDS011;38298;50.346;3.526;2023-05-31T08:34:20;12.35;;;5.95;;
52368;SDS011;38298;50.346;3.526;2023-05-31T08:36:46;11.23;;;5.25;;
52368;SDS011;38298;50.346;3.526;2023-05-31T08:39:12;20.17;;;6.10;;
52368;SDS011;38298;50.346;3.526;2023-05-31T08:41:47;11.45;;;5.57;;
52368;SDS011;38298;50.346;3.526;2023-05-31T08:44:15;12.80;;;5.32;;
52368;SDS011;38298;50.346;3.526;2023-05-31T08:46:43;11.88;;;4.72;;
52368;SDS011;38298;50.346;3.526;2023-05-31T08:49:12;8.82;;;5.32;;
52368;SDS011;38298;50.346;3.526;2023-05-31T08:51:40;14.43;;;5.28;;
52368;SDS011;38298;50.346;3.526;2023-05-31T08:54:07;11.45;;;5.07;;
52368;SDS011;38298;50.346;3.526;2023-05-31T08:56:34;7.85;;;4.70;;
52368;SDS011;38298;50.346;3.526;2023-05-31T08:59:00;11.80;;;4.72;;
52368;SDS011;38298;50.346;3.526;2023-05-31T09:01:28;9.23;;;4.75;;
52368;SDS011;38298;50.346;3.526;2023-05-31T09:03:54;9.43;;;4.57;;
52368;SDS011;38298;50.346;3.526;2023-05-31T09:06:20;12.52;;;5.80;;
52368;SDS011;38298;50.346;3.526;2023-05-31T09:08:46;14.77;;;4.40;;
52368;SDS011;38298;50.346;3.526;2023-05-31T09:11:14;9.88;;;4.57;;
52368;SDS011;38298;50.346;3.526;2023-05-31T09:13:40;10.02;;;4.20;;
52368;SDS011;38298;50.346;3.526;2023-05-31T09:16:06;12.77;;;4.05;;
52368;SDS011;38298;50.346;3.526;2023-05-31T09:18:39;10.30;;;4.88;;
52368;SDS011;38298;50.346;3.526;2023-05-31T09:21:12;9.32;;;3.92;;
52368;SDS011;38298;50.346;3.526;2023-05-31T09:23:51;8.15;;;3.88;;
52368;SDS011;38298;50.346;3.526;2023-05-31T09:26:18;13.73;;;4.57;;
52368;SDS011;38298;50.346;3.526;2023-05-31T09:28:48;9.73;;;4.40;;
52368;SDS011;38298;50.346;3.526;2023-05-31T09:31:14;15.77;;;4.90;;
52368;SDS011;38298;50.346;3.526;2023-05-31T09:33:43;9.68;;;4.95;;
52368;SDS011;38298;50.346;3.526;2023-05-31T09:36:09;8.43;;;4.00;;
52368;SDS011;38298;50.346;3.526;2023-05-31T09:38:36;8.73;;;4.30;;
52368;SDS011;38298;50.346;3.526;2023-05-31T09:43:42;7.55;;;3.97;;
52368;SDS011;38298;50.346;3.526;2023-05-31T09:46:12;10.38;;;4.13;;
52368;SDS011;38298;50.346;3.526;2023-05-31T09:48:38;8.57;;;4.20;;
52368;SDS011;38298;50.346;3.526;2023-05-31T09:51:08;8.48;;;3.88;;
52368;SDS011;38298;50.346;3.526;2023-05-31T09:53:41;12.68;;;4.40;;
52368;SDS011;38298;50.346;3.526;2023-05-31T09:56:09;6.10;;;3.33;;
52368;SDS011;38298;50.346;3.526;2023-05-31T09:58:35;6.88;;;3.45;;
52368;SDS011;38298;50.346;3.526;2023-05-31T10:01:01;7.85;;;3.53;;
52368;SDS011;38298;50.346;3.526;2023-05-31T10:03:28;9.55;;;3.47;;
52368;SDS011;38298;50.346;3.526;2023-05-31T10:05:54;14.80;;;4.22;;
52368;SDS011;38298;50.346;3.526;2023-05-31T10:08:23;9.80;;;3.30;;
52368;SDS011;38298;50.346;3.526;2023-05-31T10:10:50;9.17;;;4.27;;
52368;SDS011;38298;50.346;3.526;2023-05-31T10:13:16;5.97;;;3.30;;
52368;SDS011;38298;50.346;3.526;2023-05-31T10:15:43;7.40;;;3.30;;
52368;SDS011;38298;50.346;3.526;2023-05-31T10:18:10;9.82;;;4.03;;
52368;SDS011;38298;50.346;3.526;2023-05-31T10:20:43;13.80;;;3.50;;
52368;SDS011;38298;50.346;3.526;2023-05-31T10:23:23;5.80;;;2.80;;
52368;SDS011;38298;50.346;3.526;2023-05-31T10:28:19;8.77;;;3.42;;
52368;SDS011;38298;50.346;3.526;2023-05-31T10:30:46;12.68;;;3.00;;
52368;SDS011;38298;50.346;3.526;2023-05-31T10:33:14;7.93;;;3.20;;
52368;SDS011;38298;50.346;3.526;2023-05-31T10:35:40;8.77;;;3.20;;
52368;SDS011;38298;50.346;3.526;2023-05-31T10:38:06;7.30;;;3.15;;
52368;SDS011;38298;50.346;3.526;2023-05-31T10:40:41;6.05;;;2.60;;
52368;SDS011;38298;50.346;3.526;2023-05-31T10:45:54;6.50;;;2.85;;
52368;SDS011;38298;50.346;3.526;2023-05-31T10:51:06;7.80;;;2.65;;
52368;SDS011;38298;50.346;3.526;2023-05-31T10:53:35;8.30;;;2.47;;
52368;SDS011;38298;50.346;3.526;2023-05-31T10:56:02;8.80;;;2.47;;
52368;SDS011;38298;50.346;3.526;2023-05-31T10:58:29;4.40;;;2.30;;
52368;SDS011;38298;50.346;3.526;2023-05-31T11:00:56;7.95;;;2.90;;
52368;SDS011;38298;50.346;3.526;2023-05-31T11:03:23;16.60;;;2.30;;
52368;SDS011;38298;50.346;3.526;2023-05-31T11:05:59;5.25;;;2.50;;
52368;SDS011;38298;50.346;3.526;2023-05-31T11:08:26;6.85;;;2.55;;
52368;SDS011;38298;50.346;3.526;2023-05-31T11:10:52;8.02;;;2.55;;
52368;SDS011;38298;50.346;3.526;2023-05-31T11:13:18;10.93;;;2.60;;
52368;SDS011;38298;50.346;3.526;2023-05-31T11:15:45;6.28;;;2.50;;
52368;SDS011;38298;50.346;3.526;2023-05-31T11:18:15;3.22;;;2.03;;
52368;SDS011;38298;50.346;3.526;2023-05-31T11:20:41;11.57;;;2.75;;
52368;SDS011;38298;50.346;3.526;2023-05-31T11:25:43;4.60;;;1.80;;
52368;SDS011;38298;50.346;3.526;2023-05-31T11:28:09;5.47;;;2.10;;
52368;SDS011;38298;50.346;3.526;2023-05-31T11:30:36;8.25;;;2.20;;
52368;SDS011;38298;50.346;3.526;2023-05-31T11:33:02;7.35;;;2.10;;
52368;SDS011;38298;50.346;3.526;2023-05-31T11:35:31;6.38;;;2.00;;
52368;SDS011;38298;50.346;3.526;2023-05-31T11:38:02;4.40;;;2.50;;
52368;SDS011;38298;50.346;3.526;2023-05-31T11:40:28;7.78;;;2.28;;
52368;SDS011;38298;50.346;3.526;2023-05-31T11:42:55;4.35;;;1.90;;
52368;SDS011;38298;50.346;3.526;2023-05-31T11:45:28;5.78;;;1.63;;
52368;SDS011;38298;50.346;3.526;2023-05-31T11:50:40;3.22;;;1.70;;
52368;SDS011;38298;50.346;3.526;2023-05-31T11:53:07;6.63;;;1.98;;
52368;SDS011;38298;50.346;3.526;2023-05-31T11:55:33;6.35;;;1.60;;
52368;SDS011;38298;50.346;3.526;2023-05-31T11:58:04;5.82;;;1.70;;
52368;SDS011;38298;50.346;3.526;2023-05-31T12:00:31;7.78;;;1.42;;
52368;SDS011;38298;50.346;3.526;2023-05-31T12:02:57;6.57;;;1.75;;
52368;SDS011;38298;50.346;3.526;2023-05-31T12:05:29;3.33;;;1.20;;
52368;SDS011;38298;50.346;3.526;2023-05-31T12:07:56;3.03;;;1.38;;
52368;SDS011;38298;50.346;3.526;2023-05-31T12:10:31;4.53;;;1.40;;
52368;SDS011;38298;50.346;3.526;2023-05-31T12:12:58;2.85;;;1.23;;
52368;SDS011;38298;50.346;3.526;2023-05-31T12:15:24;2.60;;;1.55;;
52368;SDS011;38298;50.346;3.526;2023-05-31T12:17:51;4.50;;;1.27;;
52368;SDS011;38298;50.346;3.526;2023-05-31T12:20:17;5.80;;;1.33;;
52368;SDS011;38298;50.346;3.526;2023-05-31T12:22:43;8.30;;;1.20;;
52368;SDS011;38298;50.346;3.526;2023-05-31T12:25:09;3.33;;;1.30;;
52368;SDS011;38298;50.346;3.526;2023-05-31T12:27:35;3.80;;;1.15;;
52368;SDS011;38298;50.346;3.526;2023-05-31T12:30:02;5.10;;;1.10;;
52368;SDS011;38298;50.346;3.526;2023-05-31T12:32:28;4.97;;;1.30;;
52368;SDS011;38298;50.346;3.526;2023-05-31T12:37:50;4.32;;;1.10;;
52368;SDS011;38298;50.346;3.526;2023-05-31T12:40:16;4.32;;;1.10;;
52368;SDS011;38298;50.346;3.526;2023-05-31T12:42:47;2.80;;;0.98;;
52368;SDS011;38298;50.346;3.526;2023-05-31T12:45:16;4.55;;;1.38;;
52368;SDS011;38298;50.346;3.526;2023-05-31T12:47:43;10.25;;;1.17;;
52368;SDS011;38298;50.346;3.526;2023-05-31T12:50:12;6.00;;;1.60;;
52368;SDS011;38298;50.346;3.526;2023-05-31T12:52:38;8.90;;;1.30;;
52368;SDS011;38298;50.346;3.526;2023-05-31T12:55:08;6.53;;;1.60;;
52368;SDS011;38298;50.346;3.526;2023-05-31T12:57:35;3.88;;;1.17;;
52368;SDS011;38298;50.346;3.526;2023-05-31T13:00:05;4.70;;;1.15;;
52368;SDS011;38298;50.346;3.526;2023-05-31T13:02:34;8.68;;;1.20;;
52368;SDS011;38298;50.346;3.526;2023-05-31T13:05:01;2.30;;;1.00;;
52368;SDS011;38298;50.346;3.526;2023-05-31T13:07:27;4.10;;;1.10;;
52368;SDS011;38298;50.346;3.526;2023-05-31T13:09:53;7.38;;;1.45;;
52368;SDS011;38298;50.346;3.526;2023-05-31T13:12:19;5.95;;;1.20;;
52368;SDS011;38298;50.346;3.526;2023-05-31T13:14:46;3.13;;;1.50;;
52368;SDS011;38298;50.346;3.526;2023-05-31T13:17:12;7.15;;;1.10;;
52368;SDS011;38298;50.346;3.526;2023-05-31T13:19:38;5.05;;;1.13;;
52368;SDS011;38298;50.346;3.526;2023-05-31T13:22:04;3.47;;;1.08;;
52368;SDS011;38298;50.346;3.526;2023-05-31T13:24:30;7.22;;;1.20;;
52368;SDS011;38298;50.346;3.526;2023-05-31T13:26:56;1.63;;;0.90;;
52368;SDS011;38298;50.346;3.526;2023-05-31T13:29:23;2.72;;;1.10;;
52368;SDS011;38298;50.346;3.526;2023-05-31T13:31:52;7.65;;;1.45;;
52368;SDS011;38298;50.346;3.526;2023-05-31T13:34:18;6.78;;;1.20;;
52368;SDS011;38298;50.346;3.526;2023-05-31T13:36:44;4.47;;;0.93;;
52368;SDS011;38298;50.346;3.526;2023-05-31T13:39:12;2.65;;;0.90;;
52368;SDS011;38298;50.346;3.526;2023-05-31T13:41:39;4.63;;;0.90;;
52368;SDS011;38298;50.346;3.526;2023-05-31T13:44:05;6.20;;;1.20;;
52368;SDS011;38298;50.346;3.526;2023-05-31T13:46:31;5.90;;;1.30;;
52368;SDS011;38298;50.346;3.526;2023-05-31T13:48:57;3.25;;;1.55;;
52368;SDS011;38298;50.346;3.526;2023-05-31T13:51:23;6.75;;;1.20;;
52368;SDS011;38298;50.346;3.526;2023-05-31T13:53:49;4.80;;;1.10;;
52368;SDS011;38298;50.346;3.526;2023-05-31T13:56:15;3.47;;;1.35;;
52368;SDS011;38298;50.346;3.526;2023-05-31T13:58:41;3.30;;;1.00;;
52368;SDS011;38298;50.346;3.526;2023-05-31T14:01:07;3.30;;;1.10;;
52368;SDS011;38298;50.346;3.526;2023-05-31T14:03:34;6.95;;;1.02;;
52368;SDS011;38298;50.346;3.526;2023-05-31T14:06:00;3.38;;;1.30;;
52368;SDS011;38298;50.346;3.526;2023-05-31T14:08:26;3.45;;;1.33;;
52368;SDS011;38298;50.346;3.526;2023-05-31T14:10:52;1.90;;;1.10;;
52368;SDS011;38298;50.346;3.526;2023-05-31T14:13:18;6.97;;;1.10;;
52368;SDS011;38298;50.346;3.526;2023-05-31T14:15:44;8.05;;;1.65;;
52368;SDS011;38298;50.346;3.526;2023-05-31T14:18:11;3.45;;;1.17;;
52368;SDS011;38298;50.346;3.526;2023-05-31T14:20:37;7.20;;;1.30;;
52368;SDS011;38298;50.346;3.526;2023-05-31T14:23:03;12.27;;;1.60;;
52368;SDS011;38298;50.346;3.526;2023-05-31T14:25:29;5.15;;;1.30;;
52368;SDS011;38298;50.346;3.526;2023-05-31T14:27:55;8.43;;;1.33;;
52368;SDS011;38298;50.346;3.526;2023-05-31T14:30:21;7.75;;;1.20;;
52368;SDS011;38298;50.346;3.526;2023-05-31T14:32:47;6.35;;;1.30;;
52368;SDS011;38298;50.346;3.526;2023-05-31T14:35:13;12.52;;;1.23;;
52368;SDS011;38298;50.346;3.526;2023-05-31T14:37:39;2.95;;;1.05;;
52368;SDS011;38298;50.346;3.526;2023-05-31T14:40:05;1.85;;;0.90;;
52368;SDS011;38298;50.346;3.526;2023-05-31T14:42:32;6.65;;;1.17;;
52368;SDS011;38298;50.346;3.526;2023-05-31T14:44:58;3.05;;;1.35;;
52368;SDS011;38298;50.346;3.526;2023-05-31T14:47:28;7.75;;;1.05;;
52368;SDS011;38298;50.346;3.526;2023-05-31T14:49:54;5.07;;;0.95;;
52368;SDS011;38298;50.346;3.526;2023-05-31T14:52:20;7.20;;;1.13;;
52368;SDS011;38298;50.346;3.526;2023-05-31T14:54:46;5.88;;;1.25;;
52368;SDS011;38298;50.346;3.526;2023-05-31T14:57:13;3.75;;;1.00;;
52368;SDS011;38298;50.346;3.526;2023-05-31T14:59:39;5.93;;;1.00;;
52368;SDS011;38298;50.346;3.526;2023-05-31T15:02:05;4.78;;;1.33;;
52368;SDS011;38298;50.346;3.526;2023-05-31T15:04:32;3.47;;;0.80;;